Time;durP1;ratioP1;P1;durP2;ratioP2;P2;SDS_P1;SDS_P2;PMS_P1;PMS_P2;Temp;Humidity;BMP_temperature;BMP_pressure;BME280_temperature;BME280_humidity;BME280_pressure;Samples;Min_cycle;Max_cycle;Signal;HPM_P1;HPM_P2
2021/06/14 00:01:34;;;;;;;11.77;6.97;;;;;;;;;;4993093;28;20057;-62
2021/06/14 00:04:19;;;;;;;12.90;7.38;;;;;;;;;;4993149;28;20145;-62
2021/06/14 00:07:05;;;;;;;14.55;7.90;;;;;;;;;;4992988;28;20500;-62
2021/06/14 00:09:51;;;;;;;12.30;6.93;;;;;;;;;;4993234;28;20240;-62
2021/06/14 00:12:36;;;;;;;9.52;6.78;;;;;;;;;;4992998;28;20528;-62
2021/06/14 00:15:21;;;;;;;16.45;7.65;;;;;;;;;;4992919;28;20065;-62
2021/06/14 00:18:06;;;;;;;13.30;7.68;;;;;;;;;;4992557;28;20121;-62
2021/06/14 00:20:53;;;;;;;11.43;7.35;;;;;;;;;;4992678;28;20049;-62
2021/06/14 00:23:39;;;;;;;13.93;7.50;;;;;;;;;;4992651;28;20057;-62
2021/06/14 00:26:24;;;;;;;16.00;8.50;;;;;;;;;;4992975;28;20053;-62
2021/06/14 00:29:09;;;;;;;15.05;6.95;;;;;;;;;;4992914;28;20053;-62
2021/06/14 00:31:55;;;;;;;10.55;7.63;;;;;;;;;;4992977;28;20077;-62
2021/06/14 00:34:40;;;;;;;12.20;8.40;;;;;;;;;;4992709;28;20169;-62
2021/06/14 00:37:25;;;;;;;10.90;6.88;;;;;;;;;;4992704;28;20049;-62
2021/06/14 00:40:11;;;;;;;12.15;6.72;;;;;;;;;;4992427;28;20082;-62
2021/06/14 00:45:52;;;;;;;13.82;7.82;;;;;;;;;;4972666;28;20046;-62
2021/06/14 00:48:38;;;;;;;13.05;8.27;;;;;;;;;;4974576;28;20129;-62
2021/06/14 00:51:23;;;;;;;12.55;8.38;;;;;;;;;;4973613;28;20404;-62
2021/06/14 00:54:09;;;;;;;10.80;7.47;;;;;;;;;;4973090;28;20093;-62
2021/06/14 00:56:55;;;;;;;10.70;7.90;;;;;;;;;;4959698;28;20057;-62
2021/06/14 00:59:40;;;;;;;17.13;9.68;;;;;;;;;;4959270;28;20202;-62
2021/06/14 01:02:26;;;;;;;16.88;9.00;;;;;;;;;;4960338;28;20054;-62
2021/06/14 01:05:12;;;;;;;14.15;8.55;;;;;;;;;;4973681;28;20054;-62
2021/06/14 01:07:57;;;;;;;14.02;8.68;;;;;;;;;;4973981;28;20530;-62
2021/06/14 01:10:44;;;;;;;14.18;8.15;;;;;;;;;;4973754;28;20043;-62
2021/06/14 01:13:36;;;;;;;15.05;8.48;;;;;;;;;;4958744;28;20057;-62
2021/06/14 01:16:25;;;;;;;17.02;9.70;;;;;;;;;;4958738;28;20055;-62
2021/06/14 01:19:36;;;;;;;10.88;7.07;;;;;;;;;;4958946;28;20294;-62
2021/06/14 01:22:22;;;;;;;20.50;9.18;;;;;;;;;;4973483;28;20532;-62
2021/06/14 01:25:14;;;;;;;15.05;9.90;;;;;;;;;;4959404;28;20084;-63
2021/06/14 01:27:59;;;;;;;15.82;9.15;;;;;;;;;;4973903;28;20046;-62
2021/06/14 01:30:46;;;;;;;14.93;9.68;;;;;;;;;;4946886;28;20058;-62
2021/06/14 01:33:37;;;;;;;17.63;10.27;;;;;;;;;;4977357;28;20054;-63
2021/06/14 01:36:25;;;;;;;17.88;10.70;;;;;;;;;;4949275;28;20045;-63
2021/06/14 01:39:11;;;;;;;12.25;8.90;;;;;;;;;;4962856;28;20524;-62
2021/06/14 01:41:59;;;;;;;11.45;8.65;;;;;;;;;;4963476;28;20057;-62
2021/06/14 01:44:45;;;;;;;12.73;8.05;;;;;;;;;;4962133;28;20054;-62
2021/06/14 01:47:31;;;;;;;15.35;9.40;;;;;;;;;;4962896;28;20412;-62
2021/06/14 01:50:17;;;;;;;17.77;9.40;;;;;;;;;;4977386;28;20421;-63
2021/06/14 01:53:03;;;;;;;17.25;9.07;;;;;;;;;;4977243;28;20119;-62
2021/06/14 01:55:49;;;;;;;16.40;9.45;;;;;;;;;;4962975;28;20102;-62
2021/06/14 01:58:36;;;;;;;14.75;9.23;;;;;;;;;;4962786;28;20046;-63
2021/06/14 02:01:36;;;;;;;14.80;9.18;;;;;;;;;;4951098;28;20481;-62
2021/06/14 02:04:22;;;;;;;19.92;9.63;;;;;;;;;;4963421;28;20343;-62
2021/06/14 02:07:20;;;;;;;15.18;8.80;;;;;;;;;;4964802;28;20421;-62
2021/06/14 02:10:06;;;;;;;13.13;9.27;;;;;;;;;;4962547;28;20049;-62
2021/06/14 02:12:52;;;;;;;15.05;9.65;;;;;;;;;;4977515;28;20054;-63
2021/06/14 02:15:37;;;;;;;18.23;9.80;;;;;;;;;;4962941;28;20436;-62
2021/06/14 02:18:26;;;;;;;15.73;8.68;;;;;;;;;;4961687;28;20121;-63
2021/06/14 02:21:20;;;;;;;15.50;8.55;;;;;;;;;;4962008;28;20046;-63
2021/06/14 02:24:06;;;;;;;15.73;9.68;;;;;;;;;;4961684;28;20149;-63
2021/06/14 02:26:51;;;;;;;14.95;9.43;;;;;;;;;;4975878;28;20049;-63
2021/06/14 02:29:37;;;;;;;16.02;10.05;;;;;;;;;;4975781;28;20121;-62
2021/06/14 02:32:23;;;;;;;15.55;10.38;;;;;;;;;;4975848;28;20053;-62
2021/06/14 02:35:10;;;;;;;18.92;10.68;;;;;;;;;;4961705;28;20058;-62
2021/06/14 02:37:57;;;;;;;14.45;9.18;;;;;;;;;;4960777;28;20050;-61
2021/06/14 02:40:43;;;;;;;16.23;9.90;;;;;;;;;;4961616;28;20042;-62
2021/06/14 02:43:29;;;;;;;17.30;9.45;;;;;;;;;;4948514;28;20140;-63
2021/06/14 02:46:14;;;;;;;17.15;10.23;;;;;;;;;;4962458;28;20058;-61
2021/06/14 02:48:59;;;;;;;15.95;9.00;;;;;;;;;;4975988;28;20058;-62
2021/06/14 02:51:45;;;;;;;20.05;10.38;;;;;;;;;;4947719;28;20117;-62
2021/06/14 02:54:31;;;;;;;15.57;10.20;;;;;;;;;;4961481;28;20501;-62
2021/06/14 02:57:16;;;;;;;16.65;11.38;;;;;;;;;;4961343;28;20497;-61
2021/06/14 03:00:02;;;;;;;17.85;10.27;;;;;;;;;;4960549;28;20053;-62
2021/06/14 03:02:55;;;;;;;13.77;9.68;;;;;;;;;;4975153;28;20524;-62
2021/06/14 03:05:41;;;;;;;20.02;11.07;;;;;;;;;;4960301;28;20047;-62
2021/06/14 03:08:26;;;;;;;15.75;9.50;;;;;;;;;;4946652;28;20412;-62
2021/06/14 03:11:11;;;;;;;16.83;10.35;;;;;;;;;;4946497;28;20057;-62
2021/06/14 03:13:57;;;;;;;20.02;10.73;;;;;;;;;;4974570;28;20457;-62
2021/06/14 03:16:43;;;;;;;17.50;10.43;;;;;;;;;;4973444;28;20058;-62
2021/06/14 03:19:28;;;;;;;16.77;9.85;;;;;;;;;;4974362;28;20148;-62
2021/06/14 03:22:21;;;;;;;21.75;11.70;;;;;;;;;;4959881;28;20059;-62
2021/06/14 03:25:06;;;;;;;18.05;10.55;;;;;;;;;;4974362;28;20050;-62
2021/06/14 03:27:52;;;;;;;16.25;11.10;;;;;;;;;;4974387;28;20498;-62
2021/06/14 03:30:37;;;;;;;16.25;10.55;;;;;;;;;;4959688;28;20057;-62
2021/06/14 03:33:22;;;;;;;20.92;11.45;;;;;;;;;;4974086;28;20113;-62
2021/06/14 03:36:07;;;;;;;19.63;11.32;;;;;;;;;;4960003;28;20121;-62
2021/06/14 03:38:52;;;;;;;22.88;11.00;;;;;;;;;;4959565;28;20050;-62
2021/06/14 03:41:44;;;;;;;19.58;10.98;;;;;;;;;;4973787;28;20424;-62
2021/06/14 03:44:29;;;;;;;16.13;10.98;;;;;;;;;;4973790;28;20520;-62
2021/06/14 03:47:14;;;;;;;21.00;9.95;;;;;;;;;;4974065;28;20043;-62
2021/06/14 03:50:00;;;;;;;20.55;11.07;;;;;;;;;;4973668;28;20445;-62
2021/06/14 03:52:45;;;;;;;19.60;11.35;;;;;;;;;;4973605;28;20058;-62
2021/06/14 03:55:31;;;;;;;19.40;12.35;;;;;;;;;;4974012;28;20057;-62
2021/06/14 03:58:16;;;;;;;20.05;10.80;;;;;;;;;;4973695;28;20055;-62
2021/06/14 04:01:01;;;;;;;23.00;11.60;;;;;;;;;;4973533;28;20066;-62
2021/06/14 04:06:45;;;;;;;16.25;10.75;;;;;;;;;;4973576;28;20412;-62
2021/06/14 04:09:30;;;;;;;18.65;12.00;;;;;;;;;;4973346;28;20066;-62
2021/06/14 04:12:15;;;;;;;19.27;11.45;;;;;;;;;;4973741;28;20045;-62
2021/06/14 04:15:01;;;;;;;12.90;10.63;;;;;;;;;;4973331;28;20047;-62
2021/06/14 04:17:46;;;;;;;16.67;10.57;;;;;;;;;;4973700;28;20054;-62
2021/06/14 04:20:32;;;;;;;18.60;12.63;;;;;;;;;;4973160;28;20057;-62
2021/06/14 04:23:17;;;;;;;17.67;12.02;;;;;;;;;;4973369;28;20127;-62
2021/06/14 04:26:03;;;;;;;17.73;11.93;;;;;;;;;;4958700;28;20043;-62
2021/06/14 04:28:48;;;;;;;19.60;12.82;;;;;;;;;;4973477;28;20046;-62
2021/06/14 04:31:34;;;;;;;17.30;11.95;;;;;;;;;;4972986;28;20070;-62
2021/06/14 04:34:19;;;;;;;17.40;12.75;;;;;;;;;;4973285;28;20047;-62
2021/06/14 04:37:05;;;;;;;16.33;11.88;;;;;;;;;;4973265;28;20046;-62
2021/06/14 04:39:50;;;;;;;19.45;12.48;;;;;;;;;;4972886;28;20047;-62
2021/06/14 04:42:35;;;;;;;23.65;12.73;;;;;;;;;;4973376;28;20061;-62
2021/06/14 04:45:23;;;;;;;17.70;11.90;;;;;;;;;;4973006;28;20054;-62
2021/06/14 04:48:08;;;;;;;17.73;12.23;;;;;;;;;;4973136;28;20058;-62
2021/06/14 04:50:54;;;;;;;17.02;13.00;;;;;;;;;;4973096;28;20074;-62
2021/06/14 04:53:40;;;;;;;17.25;12.00;;;;;;;;;;4973167;28;20051;-62
2021/06/14 04:56:25;;;;;;;18.70;11.35;;;;;;;;;;4972951;28;20510;-62
2021/06/14 04:59:11;;;;;;;19.95;12.18;;;;;;;;;;4972949;28;20043;-62
2021/06/14 05:01:56;;;;;;;15.30;11.43;;;;;;;;;;4972887;28;20497;-62
2021/06/14 05:04:42;;;;;;;15.63;10.60;;;;;;;;;;4974075;28;20116;-62
2021/06/14 05:07:27;;;;;;;15.82;10.80;;;;;;;;;;4977237;28;20110;-62
2021/06/14 05:10:12;;;;;;;16.02;11.30;;;;;;;;;;4977520;28;20047;-61
2021/06/14 05:12:58;;;;;;;14.88;10.23;;;;;;;;;;4977695;28;20053;-62
2021/06/14 05:15:44;;;;;;;14.93;9.30;;;;;;;;;;4977912;28;20059;-62
2021/06/14 05:18:29;;;;;;;11.52;9.07;;;;;;;;;;4977885;28;20043;-61
2021/06/14 05:21:14;;;;;;;12.45;8.90;;;;;;;;;;4977085;28;20058;-62
2021/06/14 05:24:00;;;;;;;11.25;8.60;;;;;;;;;;4967326;28;20137;-62
2021/06/14 05:26:45;;;;;;;14.77;9.13;;;;;;;;;;4972571;28;20046;-62
2021/06/14 05:29:31;;;;;;;12.43;9.00;;;;;;;;;;4967787;28;20078;-62
2021/06/14 05:32:16;;;;;;;15.73;9.07;;;;;;;;;;4968132;28;20042;-62
2021/06/14 05:35:01;;;;;;;12.73;9.35;;;;;;;;;;4967990;28;20039;-61
2021/06/14 05:37:49;;;;;;;13.13;8.48;;;;;;;;;;4962238;28;20047;-61
2021/06/14 05:40:34;;;;;;;15.80;8.85;;;;;;;;;;4956742;28;20043;-62
2021/06/14 05:43:19;;;;;;;12.07;7.88;;;;;;;;;;4958321;28;20051;-62
2021/06/14 05:46:05;;;;;;;13.52;8.57;;;;;;;;;;4961000;28;20047;-62
2021/06/14 05:48:50;;;;;;;12.77;8.40;;;;;;;;;;4956791;29;20051;-62
2021/06/14 05:51:36;;;;;;;12.73;8.38;;;;;;;;;;4956755;29;20058;-62
2021/06/14 05:54:21;;;;;;;10.90;7.97;;;;;;;;;;4955802;29;20159;-62
2021/06/14 05:57:07;;;;;;;10.52;6.95;;;;;;;;;;4956789;29;20051;-62
2021/06/14 05:59:52;;;;;;;11.50;7.07;;;;;;;;;;4956475;29;20402;-62
2021/06/14 06:02:37;;;;;;;11.20;7.32;;;;;;;;;;4956700;29;20502;-62
2021/06/14 06:05:23;;;;;;;9.30;6.38;;;;;;;;;;4956393;28;20420;-62
2021/06/14 06:08:08;;;;;;;9.10;6.25;;;;;;;;;;4956627;29;20054;-62
2021/06/14 06:10:53;;;;;;;10.63;6.72;;;;;;;;;;4956320;29;20058;-62
2021/06/14 06:13:39;;;;;;;10.73;6.93;;;;;;;;;;4956283;28;20058;-62
2021/06/14 06:16:25;;;;;;;9.82;6.60;;;;;;;;;;4955583;28;20486;-62
2021/06/14 06:19:10;;;;;;;8.05;5.90;;;;;;;;;;4956359;29;20050;-62
2021/06/14 06:21:55;;;;;;;12.32;5.18;;;;;;;;;;4956433;28;20039;-62
2021/06/14 06:24:41;;;;;;;8.27;5.05;;;;;;;;;;4956433;28;20126;-62
2021/06/14 06:27:26;;;;;;;9.15;5.50;;;;;;;;;;4956179;29;20039;-62
2021/06/14 06:30:12;;;;;;;9.88;4.90;;;;;;;;;;4955950;29;20122;-62
2021/06/14 06:32:57;;;;;;;9.20;5.95;;;;;;;;;;4956293;29;20490;-62
2021/06/14 06:35:42;;;;;;;8.80;4.40;;;;;;;;;;4956147;29;20049;-62
2021/06/14 06:38:28;;;;;;;8.25;5.13;;;;;;;;;;4956062;29;20047;-62
2021/06/14 06:41:13;;;;;;;10.77;5.00;;;;;;;;;;4955718;29;20133;-62
2021/06/14 06:43:58;;;;;;;7.20;4.93;;;;;;;;;;4956311;28;20118;-65
2021/06/14 06:46:44;;;;;;;8.45;5.03;;;;;;;;;;4955162;29;20054;-65
2021/06/14 06:49:29;;;;;;;9.50;5.75;;;;;;;;;;4955460;29;20047;-65
2021/06/14 06:52:14;;;;;;;8.45;5.53;;;;;;;;;;4956056;29;20051;-66
2021/06/14 06:55:00;;;;;;;10.20;5.45;;;;;;;;;;4955642;28;20051;-65
2021/06/14 06:57:45;;;;;;;9.13;4.90;;;;;;;;;;4955603;29;20118;-65
2021/06/14 07:00:30;;;;;;;7.95;5.28;;;;;;;;;;4955275;29;20055;-65
2021/06/14 07:03:19;;;;;;;8.35;5.55;;;;;;;;;;4955616;28;20047;-65
2021/06/14 07:06:04;;;;;;;10.75;5.63;;;;;;;;;;4955678;29;20091;-66
2021/06/14 07:08:49;;;;;;;9.10;4.35;;;;;;;;;;4954587;29;20047;-65
2021/06/14 07:11:35;;;;;;;9.57;5.45;;;;;;;;;;4955156;29;20050;-65
2021/06/14 07:14:20;;;;;;;8.40;5.18;;;;;;;;;;4955318;28;20043;-65
2021/06/14 07:17:06;;;;;;;9.40;4.60;;;;;;;;;;4955335;29;20051;-65
2021/06/14 07:19:51;;;;;;;8.85;4.32;;;;;;;;;;4955036;29;20063;-65
2021/06/14 07:22:36;;;;;;;7.68;4.30;;;;;;;;;;4955227;29;20047;-65
2021/06/14 07:25:22;;;;;;;8.38;4.30;;;;;;;;;;4954192;29;20194;-64
2021/06/14 07:28:07;;;;;;;12.13;4.22;;;;;;;;;;4955170;28;20059;-64
2021/06/14 07:30:52;;;;;;;7.07;4.25;;;;;;;;;;4954836;29;20114;-64
2021/06/14 07:33:37;;;;;;;8.98;4.78;;;;;;;;;;4954997;28;20046;-64
2021/06/14 07:36:23;;;;;;;9.70;4.28;;;;;;;;;;4955046;29;20058;-65
2021/06/14 07:39:08;;;;;;;7.13;3.85;;;;;;;;;;4954928;29;20055;-65
2021/06/14 07:41:54;;;;;;;6.97;4.03;;;;;;;;;;4954788;29;20506;-65
2021/06/14 07:44:40;;;;;;;16.17;3.92;;;;;;;;;;4954686;28;20102;-65
2021/06/14 07:47:25;;;;;;;7.57;4.07;;;;;;;;;;4954724;29;20058;-64
2021/06/14 07:50:10;;;;;;;6.53;3.67;;;;;;;;;;4954475;29;20525;-65
2021/06/14 07:52:56;;;;;;;41.15;6.35;;;;;;;;;;4954686;29;20058;-65
2021/06/14 07:55:41;;;;;;;10.25;4.22;;;;;;;;;;4954527;29;20054;-65
2021/06/14 07:58:27;;;;;;;12.52;4.18;;;;;;;;;;4954815;29;20058;-65
2021/06/14 08:01:12;;;;;;;8.60;3.83;;;;;;;;;;4954269;29;20633;-65
2021/06/14 08:03:59;;;;;;;11.75;4.10;;;;;;;;;;4954654;28;20106;-65
2021/06/14 08:06:44;;;;;;;15.50;4.55;;;;;;;;;;4954743;29;20509;-64
2021/06/14 08:09:31;;;;;;;16.55;4.40;;;;;;;;;;4954384;29;20502;-65
2021/06/14 08:12:16;;;;;;;9.35;4.05;;;;;;;;;;4954470;29;20058;-65
2021/06/14 08:15:01;;;;;;;12.68;4.13;;;;;;;;;;4954687;28;20413;-65
2021/06/14 08:17:48;;;;;;;8.57;4.15;;;;;;;;;;4954794;29;20058;-65
2021/06/14 08:20:39;;;;;;;12.77;4.50;;;;;;;;;;4954392;28;20428;-65
2021/06/14 08:26:28;;;;;;;5.78;3.53;;;;;;;;;;4954639;29;20453;-65
2021/06/14 08:29:14;;;;;;;11.85;4.45;;;;;;;;;;4954280;29;20047;-65
2021/06/14 08:32:00;;;;;;;9.27;3.55;;;;;;;;;;4954431;29;20046;-65
2021/06/14 08:34:45;;;;;;;7.32;3.60;;;;;;;;;;4954616;29;20047;-65
2021/06/14 08:37:30;;;;;;;9.73;4.18;;;;;;;;;;4954444;29;20050;-64
2021/06/14 08:40:17;;;;;;;12.02;3.95;;;;;;;;;;4953719;28;20055;-65
2021/06/14 08:43:04;;;;;;;7.22;3.92;;;;;;;;;;4954514;29;20047;-65
2021/06/14 08:45:51;;;;;;;10.90;4.32;;;;;;;;;;4954221;29;20054;-65
2021/06/14 08:48:36;;;;;;;9.98;3.88;;;;;;;;;;4954350;29;20050;-65
2021/06/14 08:51:21;;;;;;;9.52;4.07;;;;;;;;;;4939465;29;20058;-65
2021/06/14 08:54:07;;;;;;;9.45;4.47;;;;;;;;;;4953862;29;20051;-65
2021/06/14 08:56:52;;;;;;;10.27;4.60;;;;;;;;;;4954085;29;20046;-63
2021/06/14 08:59:38;;;;;;;13.07;4.18;;;;;;;;;;4954055;29;20186;-63
2021/06/14 09:02:23;;;;;;;9.63;4.80;;;;;;;;;;4957170;28;20548;-61
2021/06/14 09:05:09;;;;;;;7.32;4.18;;;;;;;;;;4966147;28;20610;-62
2021/06/14 09:07:55;;;;;;;10.50;4.60;;;;;;;;;;4964332;28;20058;-63
2021/06/14 09:10:41;;;;;;;10.63;4.55;;;;;;;;;;4966972;28;20051;-63
2021/06/14 09:13:27;;;;;;;10.15;5.15;;;;;;;;;;4964223;28;20050;-64
2021/06/14 09:16:13;;;;;;;8.75;4.03;;;;;;;;;;4948199;28;20154;-64
2021/06/14 09:18:59;;;;;;;8.07;4.32;;;;;;;;;;4964481;28;20685;-62
2021/06/14 09:21:45;;;;;;;45.80;10.63;;;;;;;;;;4953601;29;20046;-62
2021/06/14 09:24:30;;;;;;;6.45;4.38;;;;;;;;;;4953757;29;20058;-62
2021/06/14 09:27:15;;;;;;;8.05;4.75;;;;;;;;;;4953632;29;20058;-62
2021/06/14 09:30:19;;;;;;;11.23;5.45;;;;;;;;;;4939038;29;20524;-62
2021/06/14 09:33:06;;;;;;;8.93;4.50;;;;;;;;;;4954073;29;20129;-62
2021/06/14 09:35:52;;;;;;;10.15;5.43;;;;;;;;;;4953472;29;20134;-61
2021/06/14 09:38:37;;;;;;;9.23;5.07;;;;;;;;;;4953598;29;20122;-62
2021/06/14 09:41:23;;;;;;;9.80;5.03;;;;;;;;;;4953194;29;20051;-62
2021/06/14 09:44:08;;;;;;;26.88;8.43;;;;;;;;;;4953177;29;20044;-62
2021/06/14 09:47:10;;;;;;;11.38;4.75;;;;;;;;;;4953606;29;20084;-63
2021/06/14 09:49:55;;;;;;;10.33;4.70;;;;;;;;;;4953173;29;20051;-62
2021/06/14 09:52:41;;;;;;;7.35;4.45;;;;;;;;;;4955754;29;20048;-62
2021/06/14 09:55:29;;;;;;;8.05;4.70;;;;;;;;;;4956971;29;20048;-62
2021/06/14 09:58:24;;;;;;;19.83;5.78;;;;;;;;;;4956811;29;20441;-63
2021/06/14 10:01:09;;;;;;;7.35;4.45;;;;;;;;;;4956488;29;20053;-63
2021/06/14 10:03:55;;;;;;;14.85;5.30;;;;;;;;;;4956611;29;20129;-64
2021/06/14 10:06:44;;;;;;;38.53;9.50;;;;;;;;;;4956716;29;20043;-64
2021/06/14 10:09:31;;;;;;;18.77;6.63;;;;;;;;;;4956358;29;20517;-65
2021/06/14 10:12:26;;;;;;;9.77;4.57;;;;;;;;;;4942329;29;20058;-64
2021/06/14 10:15:13;;;;;;;7.47;4.30;;;;;;;;;;4956420;29;20050;-64
2021/06/14 10:17:58;;;;;;;6.70;4.40;;;;;;;;;;4956574;29;20046;-64
2021/06/14 10:20:43;;;;;;;7.70;4.47;;;;;;;;;;4956134;29;20039;-64
2021/06/14 10:23:28;;;;;;;7.40;3.97;;;;;;;;;;4956288;29;20102;-64
2021/06/14 10:26:14;;;;;;;6.32;3.55;;;;;;;;;;4956307;29;20394;-64
2021/06/14 10:28:59;;;;;;;8.65;4.40;;;;;;;;;;4956304;29;20051;-64
2021/06/14 10:31:46;;;;;;;9.95;5.10;;;;;;;;;;4941832;29;20075;-64
2021/06/14 10:34:31;;;;;;;10.38;4.25;;;;;;;;;;4956070;29;20122;-63
2021/06/14 10:37:17;;;;;;;5.88;3.42;;;;;;;;;;4956206;29;20052;-63
2021/06/14 10:40:02;;;;;;;6.93;3.60;;;;;;;;;;4955885;29;20051;-63
2021/06/14 10:42:47;;;;;;;7.38;3.40;;;;;;;;;;4956228;29;20112;-63
2021/06/14 10:45:33;;;;;;;7.53;3.70;;;;;;;;;;4955947;29;20486;-63
2021/06/14 10:48:18;;;;;;;5.10;2.95;;;;;;;;;;4955959;29;20462;-62
2021/06/14 10:51:04;;;;;;;7.63;3.65;;;;;;;;;;4955414;29;20521;-63
2021/06/14 10:53:59;;;;;;;6.63;3.08;;;;;;;;;;4955768;29;20039;-63
2021/06/14 10:56:44;;;;;;;9.38;3.70;;;;;;;;;;4955800;29;20131;-63
2021/06/14 10:59:36;;;;;;;10.95;4.63;;;;;;;;;;4955532;29;20046;-63
2021/06/14 11:02:24;;;;;;;;;;;;;;;;;;4955760;28;20082;-62
2021/06/14 11:05:09;;;;;;;7.63;4.43;;;;;;;;;;4955591;29;20278;-63
2021/06/14 11:07:54;;;;;;;9.13;4.65;;;;;;;;;;4955770;29;20052;-65
2021/06/14 11:10:40;;;;;;;10.05;4.70;;;;;;;;;;4955250;29;20051;-64
2021/06/14 11:13:25;;;;;;;7.97;4.75;;;;;;;;;;4955413;29;20046;-64
2021/06/14 11:16:11;;;;;;;9.52;4.82;;;;;;;;;;4955691;29;20043;-64
2021/06/14 11:19:02;;;;;;;7.90;3.95;;;;;;;;;;4944926;28;20522;-63
2021/06/14 11:21:54;;;;;;;10.82;5.93;;;;;;;;;;4969782;28;20039;-63
2021/06/14 11:24:40;;;;;;;7.72;3.38;;;;;;;;;;4974699;28;20050;-65
2021/06/14 11:27:25;;;;;;;6.78;3.83;;;;;;;;;;4974512;28;20453;-64
2021/06/14 11:30:18;;;;;;;7.45;3.58;;;;;;;;;;4959902;28;20051;-65
2021/06/14 11:33:04;;;;;;;6.45;3.78;;;;;;;;;;4958366;28;20066;-64
2021/06/14 11:35:50;;;;;;;9.55;3.42;;;;;;;;;;4973250;28;20046;-64
2021/06/14 11:38:35;;;;;;;7.15;3.55;;;;;;;;;;4974422;28;20410;-63
2021/06/14 11:41:26;;;;;;;5.40;3.33;;;;;;;;;;4973932;28;20133;-63
2021/06/14 11:44:25;;;;;;;8.50;3.40;;;;;;;;;;4974020;28;20527;-63
2021/06/14 11:47:17;;;;;;;9.50;4.07;;;;;;;;;;4974102;28;20517;-64
2021/06/14 11:50:03;;;;;;;9.38;3.65;;;;;;;;;;4970548;28;20051;-64
2021/06/14 11:52:56;;;;;;;6.57;3.45;;;;;;;;;;4969898;28;20143;-64
2021/06/14 11:55:43;;;;;;;7.13;3.78;;;;;;;;;;4954596;29;20413;-63
2021/06/14 11:58:33;;;;;;;5.85;3.60;;;;;;;;;;4974759;28;20053;-63
2021/06/14 12:01:23;;;;;;;6.22;3.30;;;;;;;;;;4993000;28;20420;-63
2021/06/14 12:04:09;;;;;;;9.07;3.05;;;;;;;;;;4977066;28;20133;-63
2021/06/14 12:06:56;;;;;;;5.85;3.35;;;;;;;;;;4959805;28;20073;-64
2021/06/14 12:09:42;;;;;;;7.80;3.58;;;;;;;;;;4973416;28;20054;-65
2021/06/14 12:12:27;;;;;;;10.90;4.13;;;;;;;;;;4974453;28;20530;-65
2021/06/14 12:15:12;;;;;;;7.40;3.75;;;;;;;;;;4972587;28;20082;-64
2021/06/14 12:17:58;;;;;;;9.32;4.15;;;;;;;;;;4972750;28;20066;-64
2021/06/14 12:20:56;;;;;;;7.53;3.20;;;;;;;;;;4972036;28;20053;-64
2021/06/14 12:23:42;;;;;;;9.55;3.72;;;;;;;;;;4963561;28;20055;-64
2021/06/14 12:26:34;;;;;;;8.55;3.95;;;;;;;;;;4963533;28;20053;-64
2021/06/14 12:29:19;;;;;;;;;;;;;;;;;;4964490;28;20043;-63
2021/06/14 12:32:05;;;;;;;5.97;3.45;;;;;;;;;;4966544;28;19922;-62
2021/06/14 12:34:51;;;;;;;6.25;3.63;;;;;;;;;;4971241;28;20054;-64
2021/06/14 12:37:36;;;;;;;7.25;3.92;;;;;;;;;;4974316;28;20050;-64
2021/06/14 12:40:26;;;;;;;6.78;3.70;;;;;;;;;;4973386;28;20065;-64
2021/06/14 12:43:12;;;;;;;7.05;3.60;;;;;;;;;;4973488;28;20061;-63
2021/06/14 12:45:58;;;;;;;10.95;4.60;;;;;;;;;;4973151;28;20047;-63
2021/06/14 12:48:51;;;;;;;8.93;4.35;;;;;;;;;;4971156;28;20826;-63
2021/06/14 12:51:38;;;;;;;6.22;3.90;;;;;;;;;;4972897;28;20141;-62
2021/06/14 12:54:24;;;;;;;6.43;3.97;;;;;;;;;;4972425;28;20054;-62
2021/06/14 12:57:09;;;;;;;9.85;4.13;;;;;;;;;;4953903;29;20055;-62
2021/06/14 12:59:54;;;;;;;10.93;4.93;;;;;;;;;;4953457;29;20087;-62
2021/06/14 13:02:42;;;;;;;9.00;5.32;;;;;;;;;;4953919;29;20054;-62
2021/06/14 13:05:27;;;;;;;10.15;4.95;;;;;;;;;;4958624;28;20468;-63
2021/06/14 13:08:15;;;;;;;12.70;5.53;;;;;;;;;;4957030;28;20075;-62
2021/06/14 13:11:01;;;;;;;10.38;5.40;;;;;;;;;;4953625;29;20063;-62
2021/06/14 13:13:46;;;;;;;9.65;4.85;;;;;;;;;;4953698;29;20054;-62
2021/06/14 13:16:32;;;;;;;8.43;4.90;;;;;;;;;;4957619;28;20061;-62
2021/06/14 13:19:27;;;;;;;7.95;4.07;;;;;;;;;;4973036;28;20057;-63
2021/06/14 13:22:14;;;;;;;9.13;4.85;;;;;;;;;;4972941;28;20074;-62
2021/06/14 13:25:04;;;;;;;8.85;4.85;;;;;;;;;;4972862;28;20050;-63
2021/06/14 13:27:50;;;;;;;9.25;5.28;;;;;;;;;;4976459;28;20047;-63
2021/06/14 13:30:45;;;;;;;13.32;5.93;;;;;;;;;;4976628;28;20226;-63
2021/06/14 13:33:41;;;;;;;11.93;5.50;;;;;;;;;;4976295;28;20168;-62
2021/06/14 13:36:36;;;;;;;12.30;5.65;;;;;;;;;;4975828;28;20061;-62
2021/06/14 13:39:24;;;;;;;7.70;5.32;;;;;;;;;;4976295;28;20057;-63
2021/06/14 13:42:12;;;;;;;9.10;4.78;;;;;;;;;;4961806;28;20043;-63
2021/06/14 13:44:58;;;;;;;12.30;4.60;;;;;;;;;;4975915;28;20054;-63
2021/06/14 13:47:43;;;;;;;10.85;4.70;;;;;;;;;;4961317;28;20077;-63
2021/06/14 13:50:31;;;;;;;7.28;3.95;;;;;;;;;;4976266;28;20058;-63
2021/06/14 13:53:16;;;;;;;9.80;3.72;;;;;;;;;;4976126;28;20464;-63
2021/06/14 13:56:06;;;;;;;8.55;4.55;;;;;;;;;;4971767;28;20105;-64
2021/06/14 13:58:52;;;;;;;7.28;3.60;;;;;;;;;;4974922;28;20521;-63
2021/06/14 14:01:40;;;;;;;8.55;4.35;;;;;;;;;;4974979;28;20050;-63
2021/06/14 14:04:27;;;;;;;7.88;4.85;;;;;;;;;;4975070;28;20047;-63
2021/06/14 14:07:12;;;;;;;9.23;4.28;;;;;;;;;;4975878;28;20142;-63
2021/06/14 14:09:58;;;;;;;10.35;4.05;;;;;;;;;;4975977;28;20093;-64
2021/06/14 14:12:43;;;;;;;7.13;4.05;;;;;;;;;;4976158;28;20054;-63
2021/06/14 14:15:28;;;;;;;7.40;3.85;;;;;;;;;;4975948;28;20261;-63
2021/06/14 14:18:14;;;;;;;6.93;4.13;;;;;;;;;;4976252;28;20047;-63
2021/06/14 14:20:59;;;;;;;8.85;3.95;;;;;;;;;;4975441;28;20058;-62
2021/06/14 14:23:44;;;;;;;7.03;3.85;;;;;;;;;;4975762;28;20061;-63
2021/06/14 14:26:34;;;;;;;10.88;5.53;;;;;;;;;;4975666;28;20497;-63
2021/06/14 14:29:20;;;;;;;9.73;4.82;;;;;;;;;;4974756;28;20050;-63
2021/06/14 14:32:06;;;;;;;10.20;4.25;;;;;;;;;;4976578;28;20046;-64
2021/06/14 14:34:52;;;;;;;7.55;4.97;;;;;;;;;;4976029;28;20402;-64
2021/06/14 14:37:54;;;;;;;13.48;4.68;;;;;;;;;;4975461;28;20066;-64
2021/06/14 14:40:39;;;;;;;8.40;3.83;;;;;;;;;;4976800;28;20043;-64
2021/06/14 14:43:25;;;;;;;8.18;3.83;;;;;;;;;;4975564;28;20054;-64
2021/06/14 14:46:10;;;;;;;6.85;3.53;;;;;;;;;;4946399;28;20144;-62
2021/06/14 14:49:01;;;;;;;6.07;4.18;;;;;;;;;;4975145;28;20113;-63
2021/06/14 14:51:46;;;;;;;8.60;3.55;;;;;;;;;;4974205;28;20058;-63
2021/06/14 14:54:32;;;;;;;9.68;3.28;;;;;;;;;;4974965;28;20190;-63
2021/06/14 14:57:17;;;;;;;7.85;3.13;;;;;;;;;;4954471;28;20051;-63
2021/06/14 15:00:02;;;;;;;7.88;3.58;;;;;;;;;;4955487;29;20062;-63
2021/06/14 15:02:48;;;;;;;8.13;3.63;;;;;;;;;;4955481;29;20058;-63
2021/06/14 15:05:33;;;;;;;6.13;3.78;;;;;;;;;;4956765;28;20055;-63
2021/06/14 15:08:19;;;;;;;7.90;3.55;;;;;;;;;;4985275;28;20421;-64
2021/06/14 15:11:04;;;;;;;7.97;3.10;;;;;;;;;;4977205;28;20410;-63
2021/06/14 15:13:50;;;;;;;3.95;2.72;;;;;;;;;;4963402;28;20053;-64
2021/06/14 15:16:36;;;;;;;6.43;2.40;;;;;;;;;;4966556;28;20062;-64
2021/06/14 15:19:21;;;;;;;6.05;2.67;;;;;;;;;;4964313;28;20054;-63
2021/06/14 15:22:07;;;;;;;3.95;2.50;;;;;;;;;;4956066;28;20133;-63
2021/06/14 15:24:52;;;;;;;8.23;2.97;;;;;;;;;;4954351;29;20058;-64
2021/06/14 15:27:38;;;;;;;7.15;3.15;;;;;;;;;;4965223;28;20051;-63
2021/06/14 15:30:24;;;;;;;7.00;2.83;;;;;;;;;;4972536;28;20054;-64
2021/06/14 15:33:09;;;;;;;8.02;2.45;;;;;;;;;;4973876;28;20101;-64
2021/06/14 15:35:55;;;;;;;4.60;2.63;;;;;;;;;;4973711;28;20049;-63
2021/06/14 15:38:41;;;;;;;7.15;2.53;;;;;;;;;;4972287;28;20511;-63
2021/06/14 15:41:27;;;;;;;5.28;2.50;;;;;;;;;;4972722;28;20489;-63
2021/06/14 15:44:12;;;;;;;3.75;2.35;;;;;;;;;;4973258;28;20043;-64
2021/06/14 15:46:58;;;;;;;6.50;3.05;;;;;;;;;;4971849;28;20077;-63
2021/06/14 15:49:44;;;;;;;6.00;2.72;;;;;;;;;;4971639;28;20105;-64
2021/06/14 15:52:29;;;;;;;4.53;2.85;;;;;;;;;;4972383;28;20058;-64
2021/06/14 15:55:15;;;;;;;7.63;3.33;;;;;;;;;;4972527;28;20050;-64
2021/06/14 15:58:01;;;;;;;4.97;2.92;;;;;;;;;;4973853;28;20078;-64
2021/06/14 16:00:46;;;;;;;4.45;2.75;;;;;;;;;;4972930;28;20173;-64
2021/06/14 16:03:31;;;;;;;5.18;2.85;;;;;;;;;;4972752;28;20182;-64
2021/06/14 16:06:17;;;;;;;3.83;2.90;;;;;;;;;;4972895;28;20042;-64
2021/06/14 16:09:03;;;;;;;7.70;3.13;;;;;;;;;;4972475;28;20050;-64
2021/06/14 16:11:49;;;;;;;5.50;2.88;;;;;;;;;;4973016;28;20102;-64
2021/06/14 16:14:34;;;;;;;5.50;2.78;;;;;;;;;;4965546;28;20537;-64
2021/06/14 16:17:20;;;;;;;6.78;3.17;;;;;;;;;;4965189;28;20094;-64
2021/06/14 16:20:07;;;;;;;5.30;2.97;;;;;;;;;;4971676;28;20132;-64
2021/06/14 16:22:52;;;;;;;6.15;2.70;;;;;;;;;;4972529;28;20515;-64
2021/06/14 16:25:38;;;;;;;5.57;2.45;;;;;;;;;;4972892;28;20513;-64
2021/06/14 16:28:24;;;;;;;5.78;3.08;;;;;;;;;;4972220;28;20051;-64
2021/06/14 16:31:09;;;;;;;6.30;3.15;;;;;;;;;;4972821;28;20141;-64
2021/06/14 16:33:56;;;;;;;5.95;3.08;;;;;;;;;;4973232;28;20150;-64
2021/06/14 16:36:41;;;;;;;5.75;3.40;;;;;;;;;;4972131;28;20532;-64
2021/06/14 16:39:27;;;;;;;5.13;2.92;;;;;;;;;;4969881;28;20053;-64